Agua Boa, Brazil
Current Conditions -  °F | °C
As of 7:00 AM on Sunday 26 Oct 2014 (Local Time) from SBMK Reporting Station
Clear Clear  
Wind Chill: 73°   Ceiling: Unl
Heat Index: 73°   Visibility: 6mi
Dew Point: 55°   Wind: 3mph
Humidity: 53%   Direction: 150°SSE
Pressure: 29.94"   Gusts: NA
Location:  18°S, 42.39°W
Report Text: SBMK 260900Z 15003KT 110V190 CAVOK 23/13 Q1014
Loading
Personal Weather Stations






























Interactive Weather Map
Tropical Storm Tracking
New forecast layout! Learn more

10-Day Weather Forecast

Advertisements
Track Severe Weather on mobile